createdAt,value
2023-01-31T00:06:20.663Z,5.03
2023-01-31T00:26:15.273Z,4.00
2023-01-31T00:31:25.497Z,3.92
2023-01-31T01:15:30.352Z,3.22
2023-01-31T01:53:28.406Z,3.60
2023-01-31T01:56:03.703Z,4.80
2023-01-31T02:58:31.407Z,2.75
2023-01-31T03:18:23.529Z,3.08
2023-01-31T04:47:57.357Z,3.20
2023-01-31T05:19:36.367Z,3.75
2023-01-31T05:24:44.469Z,3.47
2023-01-31T06:35:26.601Z,4.15
2023-01-31T06:56:12.488Z,4.57
2023-01-31T07:04:23.494Z,3.88
2023-01-31T07:15:11.206Z,3.63
2023-01-31T07:55:38.775Z,3.45
2023-01-31T08:03:36.336Z,2.92
2023-01-31T08:06:07.210Z,4.32
2023-01-31T10:12:01.485Z,4.72
2023-01-31T11:05:52.997Z,4.65
2023-01-31T11:08:23.349Z,4.75
2023-01-31T11:10:55.316Z,5.10
2023-01-31T11:13:22.534Z,4.47
2023-01-31T11:15:52.475Z,4.95
2023-01-31T11:18:59.464Z,4.75
2023-01-31T11:21:36.111Z,5.07
2023-01-31T11:24:29.937Z,4.55
2023-01-31T11:27:04.094Z,5.88
2023-01-31T11:29:35.854Z,5.47
2023-01-31T11:32:06.690Z,5.28
2023-01-31T11:34:33.892Z,5.05
2023-01-31T11:37:14.716Z,5.15
2023-01-31T11:39:41.487Z,5.77
2023-01-31T11:42:13.469Z,5.07
2023-01-31T11:44:57.210Z,5.80
2023-01-31T11:47:46.620Z,4.43
2023-01-31T11:50:59.502Z,5.00
2023-01-31T11:53:43.919Z,4.75
2023-01-31T11:56:17.960Z,5.15
2023-01-31T11:58:49.440Z,4.40
2023-01-31T12:01:22.873Z,5.45
2023-01-31T12:04:02.711Z,5.88
2023-01-31T12:06:34.300Z,4.65
2023-01-31T12:09:03.859Z,5.30
2023-01-31T12:11:33.093Z,4.55
2023-01-31T12:14:16.809Z,5.20
2023-01-31T12:16:48.750Z,6.32
2023-01-31T12:19:15.250Z,4.88
2023-01-31T12:22:00.289Z,5.45
2023-01-31T12:24:37.943Z,4.22
2023-01-31T12:27:17.792Z,4.05
2023-01-31T12:30:22.141Z,6.03
2023-01-31T12:32:57.429Z,4.88
2023-01-31T12:35:36.184Z,5.35
2023-01-31T12:38:14.693Z,5.20
2023-01-31T12:41:04.171Z,4.90
2023-01-31T12:44:10.485Z,6.18
2023-01-31T12:47:11.050Z,6.40
2023-01-31T12:49:56.909Z,5.57
2023-01-31T12:52:56.923Z,5.38
2023-01-31T12:55:50.893Z,6.03
2023-01-31T12:58:43.846Z,6.70
2023-01-31T13:01:20.894Z,6.03
2023-01-31T13:04:18.999Z,6.72
2023-01-31T13:06:53.938Z,7.78
2023-01-31T13:09:25.720Z,7.63
2023-01-31T13:12:19.942Z,7.90
2023-01-31T13:15:04.100Z,7.30
2023-01-31T13:17:32.818Z,8.40
2023-01-31T13:20:10.100Z,8.35
2023-01-31T13:22:55.202Z,9.50
2023-01-31T13:25:37.991Z,7.85
2023-01-31T13:28:19.058Z,8.23
2023-01-31T13:30:51.933Z,6.68
2023-01-31T13:33:24.719Z,8.25
2023-01-31T13:36:11.875Z,7.53
2023-01-31T13:38:44.204Z,7.20
2023-01-31T13:41:32.086Z,6.30
2023-01-31T13:44:00.216Z,6.82
2023-01-31T13:46:35.495Z,6.65
2023-01-31T13:49:09.876Z,7.07
2023-01-31T13:52:09.303Z,5.82
2023-01-31T13:54:40.663Z,5.55
2023-01-31T13:57:08.123Z,7.03
2023-01-31T13:59:38.061Z,5.35
2023-01-31T14:02:16.893Z,5.88
2023-01-31T14:04:47.694Z,6.28
2023-01-31T14:07:19.157Z,5.75
2023-01-31T14:10:05.627Z,5.40
2023-01-31T14:12:38.034Z,5.22
2023-01-31T14:15:43.126Z,6.03
2023-01-31T14:18:09.932Z,5.65
2023-01-31T14:20:36.449Z,5.70
2023-01-31T14:23:24.624Z,4.95
2023-01-31T14:25:51.388Z,4.88
2023-01-31T14:28:24.797Z,4.72
2023-01-31T14:30:52.617Z,5.22
2023-01-31T14:33:23.314Z,5.50
2023-01-31T14:36:06.227Z,5.17
2023-01-31T14:38:57.305Z,5.03
2023-01-31T14:41:32.991Z,5.82
2023-01-31T14:44:29.346Z,6.55
2023-01-31T14:47:26.619Z,6.47
2023-01-31T14:50:20.298Z,6.03
2023-01-31T14:53:20.683Z,5.18
2023-01-31T14:56:19.543Z,5.60
2023-01-31T14:58:47.423Z,6.13
2023-01-31T15:01:18.783Z,5.78
2023-01-31T15:03:50.210Z,5.50
2023-01-31T15:06:30.305Z,5.50
2023-01-31T15:09:15.680Z,6.32
2023-01-31T15:11:44.714Z,6.70
2023-01-31T15:14:33.774Z,6.13
2023-01-31T15:17:05.717Z,6.80
2023-01-31T15:19:53.085Z,6.05
2023-01-31T15:22:22.153Z,7.10
2023-01-31T15:24:57.102Z,6.82
2023-01-31T15:27:25.644Z,6.78
2023-01-31T15:30:17.144Z,6.78
2023-01-31T15:32:52.315Z,6.70
2023-01-31T15:35:50.577Z,7.07
2023-01-31T15:38:31.103Z,7.25
2023-01-31T15:41:06.738Z,7.22
2023-01-31T15:43:33.356Z,7.40
2023-01-31T15:46:12.943Z,7.68
2023-01-31T15:48:43.099Z,8.20
2023-01-31T15:51:13.862Z,9.30
2023-01-31T15:53:41.701Z,9.05
2023-01-31T15:56:24.529Z,7.82
2023-01-31T15:58:54.487Z,8.00
2023-01-31T16:01:21.609Z,8.93
2023-01-31T16:03:57.154Z,9.45
2023-01-31T16:06:31.560Z,8.63
2023-01-31T16:09:02.799Z,8.32
2023-01-31T16:11:33.667Z,8.55
2023-01-31T16:14:04.253Z,8.95
2023-01-31T16:16:34.583Z,9.73
2023-01-31T16:19:02.793Z,9.90
2023-01-31T16:21:41.587Z,9.63
2023-01-31T16:24:11.148Z,8.65
2023-01-31T16:26:40.141Z,10.13
2023-01-31T16:29:17.297Z,11.23
2023-01-31T16:31:53.543Z,11.00
2023-01-31T16:34:25.877Z,10.50
2023-01-31T16:36:56.976Z,11.57
2023-01-31T16:39:33.600Z,11.30
2023-01-31T16:42:01.052Z,11.60
2023-01-31T16:44:34.966Z,12.18
2023-01-31T16:47:02.099Z,11.80
2023-01-31T16:49:37.258Z,12.60
2023-01-31T16:52:17.839Z,11.25
2023-01-31T16:54:55.294Z,12.75
2023-01-31T16:57:37.456Z,12.60
2023-01-31T17:00:07.966Z,12.13
2023-01-31T17:02:41.261Z,12.50
2023-01-31T17:05:24.889Z,13.00
2023-01-31T17:07:53.616Z,14.30
2023-01-31T17:10:23.671Z,13.57
2023-01-31T17:12:51.460Z,13.48
2023-01-31T17:15:20.384Z,12.82
2023-01-31T17:17:47.873Z,12.30
2023-01-31T17:20:16.716Z,13.52
2023-01-31T17:22:45.732Z,13.90
2023-01-31T17:25:26.537Z,14.70
2023-01-31T17:27:52.997Z,13.35
2023-01-31T17:30:20.928Z,15.10
2023-01-31T17:32:48.591Z,15.27
2023-01-31T17:35:20.507Z,14.30
2023-01-31T17:37:47.424Z,14.88
2023-01-31T17:40:13.992Z,15.48
2023-01-31T17:42:40.699Z,14.48
2023-01-31T17:45:13.584Z,14.35
2023-01-31T17:47:41.297Z,14.23
2023-01-31T17:50:13.799Z,15.32
2023-01-31T17:52:40.241Z,14.88
2023-01-31T17:55:07.164Z,14.48
2023-01-31T17:57:34.857Z,13.73
2023-01-31T18:00:01.334Z,12.93
2023-01-31T18:02:27.895Z,12.65
2023-01-31T18:04:54.390Z,13.55
2023-01-31T18:07:20.847Z,14.68
2023-01-31T18:09:47.363Z,13.73
2023-01-31T18:12:14.310Z,12.02
2023-01-31T18:14:40.808Z,13.65
2023-01-31T18:17:07.259Z,12.40
2023-01-31T18:19:33.704Z,12.48
2023-01-31T18:22:00.313Z,11.05
2023-01-31T18:24:26.855Z,10.95
2023-01-31T18:26:53.495Z,11.52
2023-01-31T18:29:20.880Z,10.50
2023-01-31T18:31:48.206Z,11.32
2023-01-31T18:34:15.874Z,10.55
2023-01-31T18:36:42.411Z,11.75
2023-01-31T18:39:08.925Z,10.23
2023-01-31T18:41:35.411Z,10.35
2023-01-31T18:44:01.986Z,9.35
2023-01-31T18:46:29.200Z,9.43
2023-01-31T18:48:55.809Z,8.70
2023-01-31T18:51:22.574Z,8.75
2023-01-31T18:53:49.138Z,8.98
2023-01-31T18:56:21.067Z,11.50
2023-01-31T18:58:52.331Z,9.68
2023-01-31T19:01:21.051Z,9.52
2023-01-31T19:03:50.199Z,8.25
2023-01-31T19:06:18.785Z,8.15
2023-01-31T19:08:49.914Z,7.50
2023-01-31T19:11:18.116Z,7.45
2023-01-31T19:13:45.182Z,6.53
2023-01-31T19:16:14.961Z,6.65
2023-01-31T19:18:41.696Z,7.20
2023-01-31T19:21:25.745Z,6.57
2023-01-31T19:23:54.855Z,7.05
2023-01-31T19:26:21.624Z,7.70
2023-01-31T19:28:48.649Z,6.40
2023-01-31T19:31:18.717Z,5.85
2023-01-31T19:33:50.936Z,5.65
2023-01-31T19:36:20.875Z,4.65
2023-01-31T19:38:47.550Z,3.25
2023-01-31T19:41:19.413Z,2.10
2023-01-31T19:43:48.508Z,1.60
2023-01-31T19:46:15.022Z,2.00
2023-01-31T19:48:41.619Z,1.83
2023-01-31T19:51:10.912Z,1.85
2023-01-31T19:53:38.112Z,1.80
2023-01-31T19:56:05.189Z,1.55
2023-01-31T19:58:32.219Z,2.03
2023-01-31T20:01:04.394Z,3.03
2023-01-31T20:03:31.420Z,2.10
2023-01-31T20:06:06.379Z,2.10
2023-01-31T20:08:32.835Z,2.08
2023-01-31T20:10:59.375Z,2.85
2023-01-31T20:13:26.072Z,2.10
2023-01-31T20:16:07.061Z,2.50
2023-01-31T20:18:35.314Z,2.53
2023-01-31T20:21:02.368Z,2.20
2023-01-31T20:23:29.243Z,3.33
2023-01-31T20:25:56.687Z,2.67
2023-01-31T20:28:24.141Z,3.45
2023-01-31T20:30:51.383Z,2.35
2023-01-31T20:33:18.918Z,3.67
2023-01-31T20:35:46.332Z,2.35
2023-01-31T20:38:13.198Z,2.70
2023-01-31T20:40:39.747Z,2.97
2023-01-31T20:43:06.851Z,3.35
2023-01-31T20:45:33.967Z,3.88
2023-01-31T20:48:01.026Z,4.07
2023-01-31T20:50:28.096Z,2.70
2023-01-31T20:52:55.549Z,4.05
2023-01-31T20:55:22.838Z,3.97
2023-01-31T20:57:50.782Z,3.28
2023-01-31T21:00:19.614Z,3.25
2023-01-31T21:02:46.589Z,3.58
2023-01-31T21:05:13.617Z,3.38
2023-01-31T21:07:40.246Z,3.70
2023-01-31T21:10:08.105Z,3.00
2023-01-31T21:12:34.741Z,3.33
2023-01-31T21:15:01.223Z,2.80
2023-01-31T21:17:39.477Z,3.28
2023-01-31T21:20:07.663Z,3.05
2023-01-31T21:22:36.322Z,3.33
2023-01-31T21:25:02.849Z,2.92
2023-01-31T21:27:29.413Z,4.25
2023-01-31T21:29:56.181Z,3.75
2023-01-31T21:32:22.879Z,3.35
2023-01-31T21:34:49.374Z,3.80
2023-01-31T21:37:15.846Z,4.05
2023-01-31T21:39:42.357Z,3.38
2023-01-31T21:42:16.555Z,3.63
2023-01-31T21:44:44.068Z,3.58
2023-01-31T21:47:10.876Z,3.63
2023-01-31T21:49:37.439Z,3.20
2023-01-31T21:52:05.080Z,2.20
2023-01-31T21:54:31.969Z,1.85
2023-01-31T21:56:58.759Z,1.63
2023-01-31T21:59:25.689Z,1.77
2023-01-31T22:01:52.331Z,1.92
2023-01-31T22:04:23.468Z,1.77
2023-01-31T22:06:51.261Z,1.83
2023-01-31T22:09:18.178Z,3.10
2023-01-31T22:11:47.470Z,2.78
2023-01-31T22:14:16.020Z,2.55
2023-01-31T22:16:43.099Z,3.08
2023-01-31T22:19:12.262Z,2.28
2023-01-31T22:21:40.420Z,2.50
2023-01-31T22:24:08.754Z,2.55
2023-01-31T22:26:41.401Z,2.70
2023-01-31T22:29:10.864Z,2.53
2023-01-31T22:31:37.715Z,3.63
2023-01-31T22:34:05.921Z,3.85
2023-01-31T22:36:33.568Z,3.05
2023-01-31T22:39:00.157Z,3.88
2023-01-31T22:41:27.173Z,3.80
2023-01-31T22:43:54.500Z,4.38
2023-01-31T22:46:23.647Z,3.75
2023-01-31T22:48:51.058Z,3.83
2023-01-31T22:51:20.559Z,4.30
2023-01-31T22:53:47.806Z,3.42
2023-01-31T22:56:19.944Z,4.40
2023-01-31T22:58:46.878Z,5.03
2023-01-31T23:01:16.059Z,4.15
2023-01-31T23:03:43.206Z,4.97
2023-01-31T23:06:11.007Z,6.63
2023-01-31T23:08:38.327Z,4.78
2023-01-31T23:11:07.470Z,4.20
2023-01-31T23:13:35.023Z,4.93
2023-01-31T23:16:01.854Z,4.85
2023-01-31T23:18:28.390Z,5.40
2023-01-31T23:20:55.018Z,5.03
2023-01-31T23:23:21.452Z,5.68
2023-01-31T23:25:48.303Z,4.53
2023-01-31T23:28:14.813Z,5.35
2023-01-31T23:30:41.367Z,5.10
2023-01-31T23:33:07.943Z,5.45
2023-01-31T23:35:34.520Z,5.50
2023-01-31T23:38:00.962Z,5.20
2023-01-31T23:40:27.423Z,5.25
2023-01-31T23:42:53.833Z,5.70
2023-01-31T23:45:20.289Z,5.82
2023-01-31T23:47:46.811Z,6.75
2023-01-31T23:50:13.308Z,6.28
2023-01-31T23:52:39.768Z,5.78
2023-01-31T23:55:06.898Z,5.90
2023-01-31T23:57:33.393Z,5.85
